createdAt,value
2022-10-10T00:00:44.779Z,188.50
2022-10-10T00:01:40.148Z,190.25
2022-10-10T00:02:35.407Z,191.36
2022-10-10T00:03:30.657Z,192.93
2022-10-10T00:04:25.879Z,191.03
2022-10-10T00:05:21.117Z,191.25
2022-10-10T00:06:16.283Z,191.25
2022-10-10T00:07:11.604Z,191.92
2022-10-10T00:08:09.292Z,190.36
2022-10-10T00:09:04.486Z,189.59
2022-10-10T00:09:59.672Z,190.25
2022-10-10T00:10:54.883Z,190.58
2022-10-10T00:11:50.164Z,190.36
2022-10-10T00:12:45.509Z,190.36
2022-10-10T00:13:40.576Z,190.36
2022-10-10T00:14:35.766Z,188.83
2022-10-10T00:15:31.031Z,188.39
2022-10-10T00:16:26.972Z,186.79
2022-10-10T00:17:22.233Z,185.20
2022-10-10T00:18:18.006Z,184.80
2022-10-10T00:19:13.230Z,184.19
2022-10-10T00:20:08.595Z,183.99
2022-10-10T00:21:04.273Z,183.38
2022-10-10T00:21:59.487Z,183.38
2022-10-10T00:22:54.680Z,185.21
2022-10-10T00:23:51.083Z,185.21
2022-10-10T00:24:46.333Z,185.31
2022-10-10T00:25:42.040Z,185.41
2022-10-10T00:26:37.349Z,186.57
2022-10-10T00:27:32.537Z,187.21
2022-10-10T00:28:28.486Z,187.85
2022-10-10T00:29:23.669Z,187.00
2022-10-10T00:30:19.445Z,187.32
2022-10-10T00:31:14.631Z,187.96
2022-10-10T00:32:10.022Z,187.85
2022-10-10T00:33:05.769Z,187.43
2022-10-10T00:34:01.024Z,187.43
2022-10-10T00:34:56.246Z,188.50
2022-10-10T00:35:52.533Z,187.64
2022-10-10T00:36:47.754Z,188.83
2022-10-10T00:37:43.516Z,188.72
2022-10-10T00:38:38.764Z,189.92
2022-10-10T00:39:34.027Z,190.47
2022-10-10T00:40:29.864Z,190.03
2022-10-10T00:41:25.098Z,188.29
2022-10-10T00:42:21.033Z,187.32
2022-10-10T00:43:16.113Z,187.75
2022-10-10T00:44:11.314Z,188.61
2022-10-10T00:45:07.112Z,187.00
2022-10-10T00:46:02.365Z,187.96
2022-10-10T00:46:57.722Z,188.61
2022-10-10T00:47:54.054Z,187.21
2022-10-10T00:48:49.302Z,187.64
2022-10-10T00:49:45.122Z,187.43
2022-10-10T00:50:40.393Z,187.21
2022-10-10T00:51:35.765Z,187.64
2022-10-10T00:52:31.436Z,189.70
2022-10-10T00:53:26.729Z,190.91
2022-10-10T00:54:22.534Z,192.03
2022-10-10T00:55:17.679Z,191.58
2022-10-10T00:56:13.062Z,192.48
2022-10-10T00:57:08.752Z,192.60
2022-10-10T00:58:04.037Z,192.48
2022-10-10T00:58:59.299Z,191.03
2022-10-10T00:59:55.767Z,190.03
2022-10-10T01:00:51.059Z,189.48
2022-10-10T01:01:46.856Z,188.39
2022-10-10T01:02:42.136Z,187.75
2022-10-10T01:03:37.414Z,187.85
2022-10-10T01:04:33.167Z,186.79
2022-10-10T01:05:28.427Z,187.64
2022-10-10T01:06:24.198Z,188.29
2022-10-10T01:07:19.455Z,188.72
2022-10-10T01:08:14.859Z,189.04
2022-10-10T01:09:10.633Z,188.94
2022-10-10T01:10:05.887Z,187.85
2022-10-10T01:11:01.243Z,187.85
2022-10-10T01:11:57.449Z,186.79
2022-10-10T01:12:52.997Z,186.47
2022-10-10T01:13:48.520Z,187.64
2022-10-10T01:14:43.778Z,187.21
2022-10-10T01:15:39.012Z,186.36
2022-10-10T01:16:34.264Z,185.73
2022-10-10T01:17:29.520Z,187.21
2022-10-10T01:18:25.342Z,185.20
2022-10-10T01:19:20.668Z,185.20
2022-10-10T01:20:15.828Z,184.99
2022-10-10T01:21:12.170Z,185.42
2022-10-10T01:22:07.418Z,184.19
2022-10-10T01:23:03.212Z,181.98
2022-10-10T01:23:58.449Z,180.99
2022-10-10T01:24:53.694Z,180.60
2022-10-10T01:25:49.535Z,178.48
2022-10-10T01:26:44.759Z,179.24
2022-10-10T01:27:40.674Z,178.67
2022-10-10T01:28:35.734Z,178.48
2022-10-10T01:29:31.016Z,176.77
2022-10-10T01:30:26.890Z,177.72
2022-10-10T01:31:22.137Z,177.72
2022-10-10T01:32:17.480Z,179.05
2022-10-10T01:33:12.525Z,179.43
2022-10-10T01:34:07.755Z,181.19
2022-10-10T01:35:02.912Z,179.82
2022-10-10T01:35:57.891Z,179.43
2022-10-10T01:36:56.665Z,178.48
2022-10-10T01:37:51.750Z,178.67
2022-10-10T01:38:47.004Z,179.63
2022-10-10T01:39:42.278Z,179.82
2022-10-10T01:40:37.358Z,178.67
2022-10-10T01:41:32.452Z,178.48
2022-10-10T01:42:27.445Z,178.67
2022-10-10T01:43:22.525Z,180.21
2022-10-10T01:44:20.481Z,179.43
2022-10-10T01:45:12.742Z,180.80
2022-10-10T01:46:07.742Z,184.39
2022-10-10T01:47:02.821Z,185.42
2022-10-10T01:47:57.903Z,185.42
2022-10-10T01:48:53.051Z,185.83
2022-10-10T01:49:48.162Z,188.39
2022-10-10T01:50:43.402Z,189.92
2022-10-10T01:51:38.398Z,190.03
2022-10-10T01:52:33.502Z,191.58
2022-10-10T01:53:28.520Z,193.62
2022-10-10T01:54:23.545Z,195.46
2022-10-10T01:55:18.489Z,198.78
2022-10-10T01:56:13.577Z,200.48
2022-10-10T01:57:08.817Z,200.48
2022-10-10T01:58:03.767Z,202.46
2022-10-10T01:58:58.877Z,202.58
2022-10-10T01:59:53.951Z,204.35
2022-10-10T02:00:49.087Z,204.73
2022-10-10T02:01:44.154Z,204.48
2022-10-10T02:02:39.227Z,206.28
2022-10-10T02:03:34.333Z,206.67
2022-10-10T02:04:29.584Z,206.80
2022-10-10T02:05:24.424Z,207.58
2022-10-10T02:06:19.507Z,207.98
2022-10-10T02:07:14.602Z,206.54
2022-10-10T02:08:09.709Z,207.85
2022-10-10T02:09:04.805Z,208.90
2022-10-10T02:10:00.192Z,210.38
2022-10-10T02:10:55.316Z,211.05
2022-10-10T02:11:50.578Z,212.56
2022-10-10T02:12:45.822Z,212.97
2022-10-10T02:13:41.091Z,213.11
2022-10-10T02:14:36.324Z,212.83
2022-10-10T02:15:31.581Z,212.28
2022-10-10T02:16:26.784Z,212.28
2022-10-10T02:17:22.138Z,212.42
2022-10-10T02:18:17.252Z,213.11
2022-10-10T02:19:12.518Z,213.67
2022-10-10T02:20:07.781Z,212.97
2022-10-10T02:21:03.154Z,214.08
2022-10-10T02:21:58.358Z,214.50
2022-10-10T02:22:53.872Z,214.79
2022-10-10T02:23:49.004Z,216.34
2022-10-10T02:24:44.110Z,215.49
2022-10-10T02:25:39.471Z,216.20
2022-10-10T02:26:34.700Z,218.07
2022-10-10T02:27:29.957Z,217.49
2022-10-10T02:28:25.310Z,217.92
2022-10-10T02:29:20.539Z,220.86
2022-10-10T02:30:15.662Z,218.94
2022-10-10T02:31:10.882Z,220.71
2022-10-10T02:32:06.126Z,221.15
2022-10-10T02:33:01.350Z,219.82
2022-10-10T02:33:56.874Z,218.79
2022-10-10T02:34:51.824Z,219.82
2022-10-10T02:35:47.051Z,218.94
2022-10-10T02:36:42.284Z,218.21
2022-10-10T02:37:37.505Z,216.20
2022-10-10T02:38:32.735Z,217.20
2022-10-10T02:39:30.564Z,213.39
2022-10-10T02:40:25.665Z,214.50
2022-10-10T02:41:20.873Z,215.07
2022-10-10T02:42:16.111Z,215.21
2022-10-10T02:43:11.479Z,214.22
2022-10-10T02:44:06.711Z,215.35
2022-10-10T02:45:01.700Z,212.83
2022-10-10T02:45:56.787Z,213.25
2022-10-10T02:46:51.911Z,214.64
2022-10-10T02:47:47.001Z,215.35
2022-10-10T02:48:42.209Z,214.64
2022-10-10T02:49:37.370Z,214.50
2022-10-10T02:50:32.327Z,215.21
2022-10-10T02:51:30.269Z,216.06
2022-10-10T02:52:22.516Z,216.77
2022-10-10T02:53:17.495Z,219.53
2022-10-10T02:54:12.706Z,219.53
2022-10-10T02:55:07.806Z,219.97
2022-10-10T02:56:02.812Z,220.26
2022-10-10T02:56:57.885Z,223.41
2022-10-10T02:57:52.935Z,225.72
2022-10-10T02:58:48.051Z,229.99
2022-10-10T02:59:43.181Z,229.19
2022-10-10T03:00:38.142Z,232.10
2022-10-10T03:01:33.250Z,233.43
2022-10-10T03:02:28.325Z,234.93
2022-10-10T03:03:24.406Z,238.34
2022-10-10T03:04:19.469Z,238.52
2022-10-10T03:05:14.693Z,238.52
2022-10-10T03:06:09.937Z,241.50
2022-10-10T03:07:05.151Z,242.57
2022-10-10T03:08:00.519Z,243.11
2022-10-10T03:08:55.705Z,240.97
2022-10-10T03:09:51.061Z,242.21
2022-10-10T03:10:46.303Z,244.38
2022-10-10T03:11:41.541Z,243.65
2022-10-10T03:12:36.756Z,244.02
2022-10-10T03:13:31.980Z,244.93
2022-10-10T03:14:27.230Z,246.21
2022-10-10T03:15:22.449Z,245.29
2022-10-10T03:16:17.712Z,245.11
2022-10-10T03:17:12.931Z,246.77
2022-10-10T03:18:08.288Z,246.77
2022-10-10T03:19:03.427Z,249.58
2022-10-10T03:19:58.647Z,252.27
2022-10-10T03:20:53.899Z,252.08
2022-10-10T03:21:49.146Z,251.50
2022-10-10T03:22:44.516Z,249.39
2022-10-10T03:23:39.746Z,247.70
2022-10-10T03:24:34.986Z,246.95
2022-10-10T03:25:30.519Z,248.45
2022-10-10T03:26:25.608Z,247.14
2022-10-10T03:27:20.829Z,249.58
2022-10-10T03:28:16.121Z,250.73
2022-10-10T03:29:11.353Z,249.96
2022-10-10T03:30:06.612Z,248.64
2022-10-10T03:31:01.858Z,252.27
2022-10-10T03:31:57.094Z,252.85
2022-10-10T03:32:52.800Z,250.92
2022-10-10T03:33:47.655Z,250.35
2022-10-10T03:34:43.013Z,250.35
2022-10-10T03:35:38.116Z,250.73
2022-10-10T03:36:33.403Z,249.96
2022-10-10T03:37:28.624Z,232.43
2022-10-10T03:38:23.850Z,235.94
2022-10-10T03:39:20.001Z,239.74
2022-10-10T03:40:14.391Z,243.83
2022-10-10T03:41:09.680Z,243.11
2022-10-10T03:42:04.952Z,244.02
2022-10-10T03:43:00.328Z,240.79
2022-10-10T03:43:55.419Z,240.09
2022-10-10T03:44:50.550Z,243.29
2022-10-10T03:45:45.524Z,243.11
2022-10-10T03:46:40.637Z,242.75
2022-10-10T03:47:35.738Z,241.50
2022-10-10T03:48:30.831Z,238.86
2022-10-10T03:49:25.826Z,217.20
2022-10-10T03:50:20.934Z,215.77
2022-10-10T03:51:15.909Z,219.38
2022-10-10T03:52:10.987Z,221.45
2022-10-10T03:53:06.207Z,224.95
2022-10-10T03:54:01.195Z,228.71
2022-10-10T03:54:56.297Z,230.48
2022-10-10T03:55:51.399Z,232.93
2022-10-10T03:56:46.514Z,234.93
2022-10-10T03:57:41.594Z,236.97
2022-10-10T03:58:36.763Z,238.00
2022-10-10T03:59:31.715Z,239.04
2022-10-10T04:00:26.840Z,239.56
2022-10-10T04:01:22.260Z,238.00
2022-10-10T04:02:17.462Z,239.74
2022-10-10T04:03:12.863Z,238.69
2022-10-10T04:04:08.013Z,240.26
2022-10-10T04:05:03.412Z,240.79
2022-10-10T04:05:58.649Z,241.50
2022-10-10T04:06:53.881Z,241.15
2022-10-10T04:07:49.156Z,241.86
2022-10-10T04:08:44.477Z,242.21
2022-10-10T04:09:39.732Z,244.02
2022-10-10T04:10:34.983Z,244.02
2022-10-10T04:11:30.272Z,242.93
2022-10-10T04:12:25.489Z,243.47
2022-10-10T04:13:20.822Z,241.50
2022-10-10T04:14:15.990Z,240.79
2022-10-10T04:15:11.378Z,240.09
2022-10-10T04:16:06.800Z,240.97
2022-10-10T04:17:03.436Z,239.21
2022-10-10T04:17:57.971Z,240.44
2022-10-10T04:18:53.220Z,240.09
2022-10-10T04:19:48.446Z,233.43
2022-10-10T04:20:43.687Z,232.93
2022-10-10T04:21:38.971Z,233.93
2022-10-10T04:22:34.191Z,235.10
2022-10-10T04:23:29.696Z,235.60
2022-10-10T04:24:24.792Z,236.62
2022-10-10T04:25:20.015Z,239.04
2022-10-10T04:26:15.303Z,241.50
2022-10-10T04:27:10.524Z,244.02
2022-10-10T04:28:05.993Z,245.84
2022-10-10T04:29:00.975Z,248.45
2022-10-10T04:29:56.203Z,251.11
2022-10-10T04:30:51.456Z,250.92
2022-10-10T04:31:46.861Z,252.66
2022-10-10T04:32:42.089Z,246.21
2022-10-10T04:33:37.376Z,243.47
2022-10-10T04:34:32.618Z,237.65
2022-10-10T04:35:27.915Z,235.77
2022-10-10T04:36:23.100Z,234.26
2022-10-10T04:37:18.337Z,235.27
2022-10-10T04:38:13.600Z,238.34
2022-10-10T04:39:08.965Z,239.74
2022-10-10T04:40:04.200Z,243.47
2022-10-10T04:40:59.433Z,244.74
2022-10-10T04:41:54.508Z,246.40
2022-10-10T04:42:49.982Z,249.77
2022-10-10T04:43:44.765Z,249.96
2022-10-10T04:44:39.867Z,238.17
2022-10-10T04:45:37.594Z,231.78
2022-10-10T04:46:29.881Z,233.26
2022-10-10T04:47:24.914Z,238.69
2022-10-10T04:48:20.001Z,242.04
2022-10-10T04:49:15.138Z,241.86
2022-10-10T04:50:10.148Z,244.38
2022-10-10T04:51:05.260Z,246.95
2022-10-10T04:52:00.372Z,249.21
2022-10-10T04:52:55.517Z,247.89
2022-10-10T04:53:51.589Z,246.03
2022-10-10T04:54:46.762Z,244.02
2022-10-10T04:55:41.992Z,246.03
2022-10-10T04:56:37.346Z,249.39
2022-10-10T04:57:32.616Z,251.11
2022-10-10T04:58:27.859Z,251.50
2022-10-10T04:59:23.155Z,254.82
2022-10-10T05:00:18.381Z,253.64
2022-10-10T05:01:13.986Z,249.58
2022-10-10T05:02:08.919Z,249.96
2022-10-10T05:03:04.151Z,251.69
2022-10-10T05:03:59.477Z,253.64
2022-10-10T05:04:54.687Z,251.50
2022-10-10T05:05:49.921Z,253.44
2022-10-10T05:06:45.191Z,253.64
2022-10-10T05:07:40.612Z,255.01
2022-10-10T05:08:35.847Z,254.62
2022-10-10T05:09:31.162Z,255.21
2022-10-10T05:10:26.434Z,254.23
2022-10-10T05:11:21.692Z,251.88
2022-10-10T05:12:16.942Z,242.57
2022-10-10T05:13:12.185Z,234.09
2022-10-10T05:14:07.556Z,233.10
2022-10-10T05:15:02.813Z,232.93
2022-10-10T05:15:58.267Z,233.26
2022-10-10T05:16:53.474Z,233.59
2022-10-10T05:17:48.776Z,235.94
2022-10-10T05:18:44.078Z,234.43
2022-10-10T05:19:39.389Z,237.65
2022-10-10T05:20:34.819Z,238.52
2022-10-10T05:21:30.026Z,239.04
2022-10-10T05:22:25.307Z,239.04
2022-10-10T05:23:20.677Z,242.75
2022-10-10T05:24:16.086Z,242.57
2022-10-10T05:25:11.385Z,241.15
2022-10-10T05:26:06.725Z,240.97
2022-10-10T05:27:02.042Z,241.68
2022-10-10T05:27:57.400Z,241.68
2022-10-10T05:28:52.674Z,244.20
2022-10-10T05:29:48.016Z,246.21
2022-10-10T05:30:43.421Z,245.84
2022-10-10T05:31:38.787Z,245.66
2022-10-10T05:32:34.321Z,247.51
2022-10-10T05:33:29.576Z,247.70
2022-10-10T05:34:25.014Z,249.39
2022-10-10T05:35:20.369Z,252.27
2022-10-10T05:36:15.731Z,249.21
2022-10-10T05:37:11.089Z,248.45
2022-10-10T05:38:06.551Z,211.74
2022-10-10T05:39:02.009Z,193.96
2022-10-10T05:39:57.424Z,195.12
2022-10-10T05:40:52.468Z,201.46
2022-10-10T05:41:47.505Z,210.51
2022-10-10T05:42:42.683Z,215.49
2022-10-10T05:43:37.782Z,219.53
2022-10-10T05:44:32.793Z,220.41
2022-10-10T05:45:27.818Z,219.09
2022-10-10T05:46:22.878Z,220.86
2022-10-10T05:47:17.996Z,221.01
2022-10-10T05:48:13.050Z,223.72
2022-10-10T05:49:08.110Z,225.72
2022-10-10T05:50:04.340Z,228.71
2022-10-10T05:50:59.323Z,234.09
2022-10-10T05:51:54.335Z,237.14
2022-10-10T05:52:49.844Z,236.45
2022-10-10T05:53:44.509Z,236.62
2022-10-10T05:54:39.537Z,235.94
2022-10-10T05:55:34.604Z,224.95
2022-10-10T05:56:30.009Z,223.41
2022-10-10T05:57:25.730Z,227.76
2022-10-10T05:58:20.964Z,230.31
2022-10-10T05:59:16.353Z,231.78
2022-10-10T06:00:11.822Z,88.73
2022-10-10T06:01:07.181Z,52.83
2022-10-10T06:02:02.623Z,47.53
2022-10-10T06:02:57.999Z,45.44
2022-10-10T06:03:53.226Z,42.31
2022-10-10T06:04:48.592Z,41.35
2022-10-10T06:05:44.499Z,42.79
2022-10-10T06:06:40.062Z,43.87
2022-10-10T06:07:52.312Z,48.67
2022-10-10T06:08:31.645Z,54.35
2022-10-10T06:09:26.076Z,60.23
2022-10-10T06:10:21.438Z,65.68
2022-10-10T06:11:16.962Z,70.04
2022-10-10T06:12:12.275Z,74.54
2022-10-10T06:13:07.680Z,78.99
2022-10-10T06:14:03.107Z,83.49
2022-10-10T06:14:58.507Z,87.25
2022-10-10T06:15:53.921Z,90.96
2022-10-10T06:16:49.335Z,95.00
2022-10-10T06:19:14.668Z,88.92
2022-10-10T06:20:05.531Z,89.49
2022-10-10T06:21:00.945Z,90.56
2022-10-10T06:21:56.391Z,94.14
2022-10-10T06:22:52.010Z,96.85
2022-10-10T06:23:47.189Z,102.13
2022-10-10T06:24:42.718Z,105.22
2022-10-10T06:25:40.845Z,109.64
2022-10-10T06:26:33.841Z,112.91
2022-10-10T06:27:29.174Z,116.94
2022-10-10T06:28:24.846Z,121.01
2022-10-10T06:29:20.285Z,125.47
2022-10-10T06:30:15.784Z,129.16
2022-10-10T06:31:11.309Z,131.40
2022-10-10T06:32:06.804Z,135.67
2022-10-10T06:33:02.356Z,140.00
2022-10-10T06:33:57.853Z,142.63
2022-10-10T06:34:53.345Z,144.61
2022-10-10T06:35:48.864Z,147.42
2022-10-10T06:36:44.371Z,149.26
2022-10-10T06:37:39.926Z,151.57
2022-10-10T06:38:35.454Z,153.66
2022-10-10T06:39:31.075Z,156.99
2022-10-10T06:40:26.456Z,160.77
2022-10-10T06:41:22.029Z,165.39
2022-10-10T06:42:17.521Z,165.06
2022-10-10T06:43:13.036Z,167.38
2022-10-10T06:44:08.603Z,168.90
2022-10-10T06:45:04.118Z,169.24
2022-10-10T06:45:59.671Z,171.86
2022-10-10T06:46:55.066Z,174.55
2022-10-10T06:47:50.696Z,176.77
2022-10-10T06:48:46.188Z,178.29
2022-10-10T06:49:41.707Z,179.05
2022-10-10T06:50:37.212Z,179.63
2022-10-10T06:51:32.750Z,181.39
2022-10-10T06:52:28.112Z,181.98
2022-10-10T06:53:23.615Z,182.58
2022-10-10T06:54:19.116Z,185.42
2022-10-10T06:55:14.678Z,186.66
2022-10-10T06:56:10.038Z,186.36
2022-10-10T06:57:05.537Z,186.89
2022-10-10T06:58:01.062Z,186.68
2022-10-10T06:58:56.569Z,187.53
2022-10-10T06:59:52.052Z,187.00
2022-10-10T07:00:47.618Z,189.26
2022-10-10T07:01:43.149Z,190.36
2022-10-10T07:02:38.655Z,192.37
2022-10-10T07:03:34.207Z,192.15
2022-10-10T07:04:29.604Z,193.96
2022-10-10T07:05:25.113Z,192.60
2022-10-10T07:06:20.646Z,193.05
2022-10-10T07:07:16.004Z,193.50
2022-10-10T07:08:11.493Z,193.85
2022-10-10T07:09:07.024Z,195.35
2022-10-10T07:10:02.539Z,195.35
2022-10-10T07:10:58.024Z,197.11
2022-10-10T07:11:53.568Z,196.99
2022-10-10T07:12:49.053Z,194.42
2022-10-10T07:13:44.562Z,193.96
2022-10-10T07:14:40.113Z,195.93
2022-10-10T07:15:35.648Z,193.62
2022-10-10T07:16:30.999Z,195.23
2022-10-10T07:17:26.548Z,195.70
2022-10-10T07:18:22.053Z,196.28
2022-10-10T07:19:17.554Z,194.42
2022-10-10T07:20:13.072Z,193.39
2022-10-10T07:21:08.694Z,193.85
2022-10-10T07:22:04.092Z,193.16
2022-10-10T07:22:59.616Z,192.93
2022-10-10T07:23:54.999Z,194.54
2022-10-10T07:24:50.491Z,192.48
2022-10-10T07:25:46.058Z,192.71
2022-10-10T07:26:41.547Z,191.25
2022-10-10T07:27:37.076Z,189.81
2022-10-10T07:28:32.658Z,188.83
2022-10-10T07:29:28.155Z,186.89
2022-10-10T07:30:23.544Z,186.89
2022-10-10T07:31:19.093Z,185.01
2022-10-10T07:32:14.595Z,184.60
2022-10-10T07:33:10.000Z,182.98
2022-10-10T07:34:05.556Z,180.80
2022-10-10T07:35:01.025Z,181.78
2022-10-10T07:35:56.584Z,181.39
2022-10-10T07:36:51.965Z,181.19
2022-10-10T07:37:47.615Z,181.19
2022-10-10T07:38:43.113Z,179.43
2022-10-10T07:39:38.661Z,179.43
2022-10-10T07:40:34.058Z,179.43
2022-10-10T07:41:29.471Z,179.05
2022-10-10T07:42:25.152Z,178.86
2022-10-10T07:43:20.670Z,178.29
2022-10-10T07:44:16.200Z,179.24
2022-10-10T07:45:11.760Z,178.48
2022-10-10T07:46:12.199Z,176.77
2022-10-10T07:47:02.838Z,176.03
2022-10-10T07:47:58.399Z,175.66
2022-10-10T07:48:53.939Z,172.93
2022-10-10T07:49:49.451Z,171.86
2022-10-10T07:50:44.902Z,171.68
2022-10-10T07:51:40.321Z,171.33
2022-10-10T07:52:35.742Z,170.46
2022-10-10T07:53:31.196Z,168.56
2022-10-10T07:54:26.652Z,167.54
2022-10-10T07:55:22.089Z,167.71
2022-10-10T07:56:17.419Z,167.04
2022-10-10T07:57:12.854Z,164.90
2022-10-10T07:58:08.302Z,163.92
2022-10-10T07:59:03.768Z,165.22
2022-10-10T07:59:59.177Z,166.88
2022-10-10T08:00:54.747Z,166.88
2022-10-10T08:01:50.335Z,166.71
2022-10-10T08:02:45.714Z,166.21
2022-10-10T08:03:41.241Z,164.73
2022-10-10T08:04:36.806Z,163.60
2022-10-10T08:05:32.316Z,162.80
2022-10-10T08:06:27.843Z,164.09
2022-10-10T08:07:23.450Z,164.41
2022-10-10T08:08:18.811Z,162.96
2022-10-10T08:09:14.232Z,161.08
2022-10-10T08:10:09.744Z,159.84
2022-10-10T08:11:05.263Z,161.08
2022-10-10T08:12:00.815Z,161.54
2022-10-10T08:12:56.308Z,163.28
2022-10-10T08:13:51.791Z,163.92
2022-10-10T08:14:47.499Z,164.09
2022-10-10T08:15:43.000Z,163.76
2022-10-10T08:16:38.513Z,165.55
2022-10-10T08:17:34.039Z,166.54
2022-10-10T08:18:29.538Z,166.71
2022-10-10T08:19:25.070Z,167.88
2022-10-10T08:20:20.470Z,166.21
2022-10-10T08:21:15.991Z,165.55
2022-10-10T08:22:11.616Z,164.41
2022-10-10T08:23:07.025Z,164.90
2022-10-10T08:24:02.569Z,162.80
2022-10-10T08:24:58.118Z,161.70
2022-10-10T08:25:53.525Z,161.23
2022-10-10T08:26:48.789Z,158.18
2022-10-10T08:27:44.228Z,158.32
2022-10-10T08:28:39.595Z,158.93
2022-10-10T08:29:34.953Z,156.99
2022-10-10T08:30:30.448Z,158.93
2022-10-10T08:31:25.745Z,160.30
2022-10-10T08:32:21.162Z,161.70
2022-10-10T08:33:16.626Z,160.61
2022-10-10T08:34:12.056Z,159.23
2022-10-10T08:35:07.474Z,159.99
2022-10-10T08:36:02.918Z,158.03
2022-10-10T08:36:58.313Z,157.58
2022-10-10T08:37:53.724Z,157.58
2022-10-10T08:38:49.081Z,158.48
2022-10-10T08:39:45.121Z,158.03
2022-10-10T08:40:39.885Z,155.67
2022-10-10T08:41:35.336Z,156.54
2022-10-10T08:42:30.883Z,156.40
2022-10-10T08:43:26.168Z,154.94
2022-10-10T08:44:21.562Z,155.38
2022-10-10T08:45:17.137Z,156.69
2022-10-10T08:46:12.439Z,152.82
2022-10-10T08:47:07.929Z,152.54
2022-10-10T08:48:03.254Z,152.68
2022-10-10T08:48:58.583Z,151.02
2022-10-10T08:49:54.128Z,148.86
2022-10-10T08:50:49.558Z,149.93
2022-10-10T08:51:45.022Z,149.80
2022-10-10T08:52:40.448Z,151.02
2022-10-10T08:53:35.890Z,150.47
2022-10-10T08:54:31.318Z,149.00
2022-10-10T08:55:26.741Z,150.34
2022-10-10T08:56:22.185Z,150.61
2022-10-10T08:57:17.646Z,150.07
2022-10-10T08:58:12.916Z,150.47
2022-10-10T08:59:08.236Z,147.68
2022-10-10T09:00:03.777Z,144.73
2022-10-10T09:00:59.374Z,138.49
2022-10-10T09:02:18.485Z,138.95
2022-10-10T09:02:54.030Z,140.47
2022-10-10T09:03:45.658Z,141.78
2022-10-10T09:04:41.073Z,143.49
2022-10-10T09:05:36.506Z,141.66
2022-10-10T09:06:31.957Z,140.47
2022-10-10T09:07:27.503Z,136.90
2022-10-10T09:08:26.348Z,138.26
2022-10-10T09:09:18.202Z,140.11
2022-10-10T09:10:13.771Z,139.76
2022-10-10T09:11:09.111Z,139.64
2022-10-10T09:12:04.539Z,140.00
2022-10-10T09:12:59.990Z,139.18
2022-10-10T09:13:55.590Z,139.29
2022-10-10T09:14:51.039Z,139.29
2022-10-10T09:15:46.515Z,139.29
2022-10-10T09:16:41.841Z,139.29
2022-10-10T09:17:37.248Z,137.69
2022-10-10T09:18:32.680Z,138.26
2022-10-10T09:19:28.168Z,138.72
2022-10-10T09:20:23.475Z,136.45
2022-10-10T09:21:19.160Z,138.03
2022-10-10T09:22:14.339Z,137.69
2022-10-10T09:23:09.769Z,136.11
2022-10-10T09:24:05.190Z,137.01
2022-10-10T09:25:00.636Z,137.46
2022-10-10T09:25:56.162Z,134.58
2022-10-10T09:26:51.682Z,133.61
2022-10-10T09:27:47.202Z,133.50
2022-10-10T09:28:42.822Z,132.55
2022-10-10T09:29:38.227Z,133.07
2022-10-10T09:30:33.894Z,131.71
2022-10-10T09:31:29.392Z,131.71
2022-10-10T09:32:24.964Z,131.40
2022-10-10T09:33:20.373Z,133.18
2022-10-10T09:34:15.785Z,134.25
2022-10-10T09:35:11.250Z,135.67
2022-10-10T09:36:06.695Z,136.67
2022-10-10T09:37:02.103Z,134.90
2022-10-10T09:37:57.567Z,133.07
2022-10-10T09:38:52.993Z,132.76
2022-10-10T09:39:48.416Z,132.44
2022-10-10T09:40:43.715Z,134.04
2022-10-10T09:41:39.149Z,134.90
2022-10-10T09:42:34.601Z,134.68
2022-10-10T09:43:30.031Z,134.47
2022-10-10T09:44:25.476Z,135.78
2022-10-10T09:45:21.041Z,134.68
2022-10-10T09:46:16.561Z,135.67
2022-10-10T09:47:12.080Z,134.14
2022-10-10T09:48:07.630Z,135.01
2022-10-10T09:49:03.123Z,133.71
2022-10-10T09:49:58.569Z,134.68
2022-10-10T09:50:53.999Z,134.14
2022-10-10T09:51:49.633Z,129.96
2022-10-10T09:52:45.170Z,130.47
2022-10-10T09:53:40.607Z,132.65
2022-10-10T09:54:36.256Z,133.39
2022-10-10T09:55:31.777Z,134.58
2022-10-10T09:56:27.344Z,135.45
2022-10-10T09:57:22.875Z,135.67
2022-10-10T09:58:18.317Z,135.23
2022-10-10T09:59:13.744Z,135.78
2022-10-10T10:00:09.154Z,135.01
2022-10-10T10:01:04.717Z,136.00
2022-10-10T10:02:00.137Z,135.34
2022-10-10T10:02:55.410Z,135.89
2022-10-10T10:03:52.497Z,135.78
2022-10-10T10:04:46.290Z,137.23
2022-10-10T10:05:41.837Z,136.67
2022-10-10T10:06:37.265Z,136.34
2022-10-10T10:07:32.539Z,132.13
2022-10-10T10:08:28.033Z,130.37
2022-10-10T10:09:23.528Z,129.76
2022-10-10T10:10:19.060Z,132.23
2022-10-10T10:11:14.645Z,135.45
2022-10-10T10:12:10.073Z,135.23
2022-10-10T10:13:05.602Z,137.69
2022-10-10T10:14:00.975Z,139.53
2022-10-10T10:14:56.432Z,141.18
2022-10-10T10:15:51.979Z,141.90
2022-10-10T10:16:47.393Z,141.18
2022-10-10T10:17:42.826Z,139.53
2022-10-10T10:18:38.361Z,139.88
2022-10-10T10:19:33.943Z,140.35
2022-10-10T10:20:29.384Z,141.54
2022-10-10T10:21:24.653Z,142.26
2022-10-10T10:22:23.250Z,142.75
2022-10-10T10:23:16.629Z,143.36
2022-10-10T10:24:11.092Z,133.07
2022-10-10T10:25:06.359Z,122.97
2022-10-10T10:26:02.130Z,106.43
2022-10-10T10:26:57.478Z,101.50
2022-10-10T10:27:52.939Z,100.89
2022-10-10T10:28:48.379Z,101.38
2022-10-10T10:29:43.770Z,101.63
2022-10-10T10:30:39.179Z,102.25
2022-10-10T10:31:34.729Z,103.91
2022-10-10T10:32:30.179Z,105.42
2022-10-10T10:33:25.607Z,106.43
2022-10-10T10:34:20.939Z,110.00
2022-10-10T10:35:16.335Z,111.85
2022-10-10T10:36:11.748Z,114.06
2022-10-10T10:37:10.356Z,111.10
2022-10-10T10:38:03.569Z,103.84
2022-10-10T10:38:58.015Z,97.13
2022-10-10T10:39:53.434Z,95.43
2022-10-10T10:40:48.877Z,94.87
2022-10-10T10:41:44.548Z,92.57
2022-10-10T10:42:40.004Z,90.56
2022-10-10T10:43:35.497Z,89.69
2022-10-10T10:44:31.144Z,88.54
2022-10-10T10:45:26.584Z,86.89
2022-10-10T10:46:22.098Z,85.64
2022-10-10T10:47:17.726Z,87.99
2022-10-10T10:48:13.223Z,91.06
2022-10-10T10:49:08.733Z,93.82
2022-10-10T10:50:04.334Z,94.17
2022-10-10T10:51:00.001Z,97.76
2022-10-10T10:51:55.155Z,100.41
2022-10-10T10:52:50.962Z,102.25
2022-10-10T10:53:46.354Z,98.28
2022-10-10T10:54:42.437Z,98.39
2022-10-10T10:55:39.398Z,99.63
2022-10-10T10:57:36.941Z,93.30
2022-10-10T11:00:22.023Z,68.60
2022-10-10T11:00:25.615Z,73.23
2022-10-10T11:01:28.190Z,67.11
2022-10-10T11:02:06.877Z,66.57
2022-10-10T11:03:20.614Z,67.32
2022-10-10T11:05:16.158Z,68.77
2022-10-10T11:05:22.745Z,70.04
2022-10-10T11:05:48.777Z,69.05
2022-10-10T11:06:54.274Z,67.98
2022-10-10T11:07:39.614Z,68.32
2022-10-10T11:08:34.020Z,70.21
2022-10-10T11:09:49.145Z,73.23
2022-10-10T11:10:26.136Z,77.67
2022-10-10T11:11:20.718Z,80.98
2022-10-10T11:12:16.087Z,83.66
2022-10-10T11:13:11.694Z,86.89
2022-10-10T11:14:07.106Z,87.71
2022-10-10T11:15:02.755Z,88.26
2022-10-10T11:16:08.594Z,89.49
2022-10-10T11:16:54.757Z,88.36
2022-10-10T11:17:49.298Z,88.26
2022-10-10T11:18:44.805Z,89.30
2022-10-10T11:19:40.515Z,91.66
2022-10-10T11:20:36.043Z,94.25
2022-10-10T11:21:31.547Z,91.96
2022-10-10T11:22:27.059Z,83.24
2022-10-10T11:23:22.573Z,79.82
2022-10-10T11:24:18.065Z,80.82
2022-10-10T11:25:13.470Z,80.75
2022-10-10T11:26:08.902Z,79.90
2022-10-10T11:27:04.321Z,81.54
2022-10-10T11:27:59.838Z,79.06
2022-10-10T11:28:55.272Z,79.14
2022-10-10T11:29:50.730Z,83.00
2022-10-10T11:30:46.046Z,82.58
2022-10-10T11:31:41.572Z,87.07
2022-10-10T11:32:37.510Z,93.72
2022-10-10T11:33:32.654Z,96.74
2022-10-10T11:34:28.120Z,97.53
2022-10-10T11:35:23.629Z,95.47
2022-10-10T11:36:19.136Z,95.11
2022-10-10T11:37:14.823Z,96.07